sensor_id;sensor_type;location;lat;lon;timestamp;pressure;altitude;pressure_sealevel;temperature;humidity
12219;BME280;6172;42.646;23.344;2022-08-18T00:02:15;94435.09;;;19.83;100.00
12219;BME280;6172;42.646;23.344;2022-08-18T00:04:44;94435.66;;;19.87;100.00
12219;BME280;6172;42.646;23.344;2022-08-18T00:07:15;94398.47;;;19.73;100.00
12219;BME280;6172;42.646;23.344;2022-08-18T00:09:42;94435.00;;;19.77;100.00
12219;BME280;6172;42.646;23.344;2022-08-18T00:12:13;94405.94;;;19.67;100.00
12219;BME280;6172;42.646;23.344;2022-08-18T00:14:41;94430.44;;;19.74;100.00
12219;BME280;6172;42.646;23.344;2022-08-18T00:17:08;94439.28;;;19.78;100.00
12219;BME280;6172;42.646;23.344;2022-08-18T00:19:35;94402.13;;;19.65;100.00
12219;BME280;6172;42.646;23.344;2022-08-18T00:22:03;94436.53;;;19.78;100.00
12219;BME280;6172;42.646;23.344;2022-08-18T00:24:31;94406.13;;;19.64;100.00
12219;BME280;6172;42.646;23.344;2022-08-18T00:26:58;94433.19;;;19.74;100.00
12219;BME280;6172;42.646;23.344;2022-08-18T00:29:26;94429.56;;;19.68;100.00
12219;BME280;6172;42.646;23.344;2022-08-18T00:31:53;94432.16;;;19.57;100.00
12219;BME280;6172;42.646;23.344;2022-08-18T00:34:20;94430.63;;;19.56;100.00
12219;BME280;6172;42.646;23.344;2022-08-18T00:36:47;94416.41;;;19.48;100.00
12219;BME280;6172;42.646;23.344;2022-08-18T00:39:15;94417.56;;;19.42;100.00
12219;BME280;6172;42.646;23.344;2022-08-18T00:41:43;94434.53;;;19.49;100.00
12219;BME280;6172;42.646;23.344;2022-08-18T00:44:10;94420.25;;;19.36;100.00
12219;BME280;6172;42.646;23.344;2022-08-18T00:46:40;94412.22;;;19.38;100.00
12219;BME280;6172;42.646;23.344;2022-08-18T00:49:07;94430.44;;;19.45;100.00
12219;BME280;6172;42.646;23.344;2022-08-18T00:51:38;94426.91;;;19.30;100.00
12219;BME280;6172;42.646;23.344;2022-08-18T00:54:11;94445.31;;;19.33;100.00
12219;BME280;6172;42.646;23.344;2022-08-18T00:56:45;94438.56;;;19.34;100.00
12219;BME280;6172;42.646;23.344;2022-08-18T00:59:17;94448.25;;;19.29;100.00
12219;BME280;6172;42.646;23.344;2022-08-18T01:01:49;94447.53;;;19.20;100.00
12219;BME280;6172;42.646;23.344;2022-08-18T01:04:24;94453.81;;;19.44;100.00
12219;BME280;6172;42.646;23.344;2022-08-18T01:06:53;94433.47;;;19.18;100.00
12219;BME280;6172;42.646;23.344;2022-08-18T01:09:21;94465.03;;;19.26;100.00
12219;BME280;6172;42.646;23.344;2022-08-18T01:11:50;94454.31;;;19.19;100.00
12219;BME280;6172;42.646;23.344;2022-08-18T01:14:21;94452.56;;;19.07;100.00
12219;BME280;6172;42.646;23.344;2022-08-18T01:16:48;94458.09;;;19.07;100.00
12219;BME280;6172;42.646;23.344;2022-08-18T01:19:34;94453.19;;;19.11;100.00
12219;BME280;6172;42.646;23.344;2022-08-18T01:22:22;94461.16;;;19.09;100.00
12219;BME280;6172;42.646;23.344;2022-08-18T01:24:55;94441.69;;;18.89;100.00
12219;BME280;6172;42.646;23.344;2022-08-18T01:27:40;94444.06;;;18.81;100.00
12219;BME280;6172;42.646;23.344;2022-08-18T01:30:11;94449.31;;;18.94;100.00
12219;BME280;6172;42.646;23.344;2022-08-18T01:32:40;94426.38;;;18.88;100.00
12219;BME280;6172;42.646;23.344;2022-08-18T01:35:09;94435.81;;;18.96;100.00
12219;BME280;6172;42.646;23.344;2022-08-18T01:37:38;94429.50;;;18.95;100.00
12219;BME280;6172;42.646;23.344;2022-08-18T01:40:10;94432.47;;;18.92;100.00
12219;BME280;6172;42.646;23.344;2022-08-18T01:42:38;94427.59;;;18.87;100.00
12219;BME280;6172;42.646;23.344;2022-08-18T01:45:09;94446.28;;;18.92;100.00
12219;BME280;6172;42.646;23.344;2022-08-18T01:47:36;94440.28;;;18.93;100.00
12219;BME280;6172;42.646;23.344;2022-08-18T01:50:05;94432.38;;;18.86;100.00
12219;BME280;6172;42.646;23.344;2022-08-18T01:52:33;94411.06;;;18.63;100.00
12219;BME280;6172;42.646;23.344;2022-08-18T01:55:01;94438.78;;;18.69;100.00
12219;BME280;6172;42.646;23.344;2022-08-18T01:57:30;94436.03;;;18.69;100.00
12219;BME280;6172;42.646;23.344;2022-08-18T01:59:57;94431.34;;;18.60;100.00
12219;BME280;6172;42.646;23.344;2022-08-18T02:02:27;94421.41;;;18.54;100.00
12219;BME280;6172;42.646;23.344;2022-08-18T02:05:00;94394.84;;;18.42;100.00
12219;BME280;6172;42.646;23.344;2022-08-18T02:07:28;94428.28;;;18.58;100.00
12219;BME280;6172;42.646;23.344;2022-08-18T02:09:55;94440.63;;;18.48;100.00
12219;BME280;6172;42.646;23.344;2022-08-18T02:12:22;94443.25;;;18.43;100.00
12219;BME280;6172;42.646;23.344;2022-08-18T02:14:51;94452.59;;;18.45;100.00
12219;BME280;6172;42.646;23.344;2022-08-18T02:17:18;94433.78;;;18.35;100.00
12219;BME280;6172;42.646;23.344;2022-08-18T02:19:46;94452.44;;;18.40;100.00
12219;BME280;6172;42.646;23.344;2022-08-18T02:22:17;94429.47;;;18.34;100.00
12219;BME280;6172;42.646;23.344;2022-08-18T02:24:44;94444.91;;;18.49;100.00
12219;BME280;6172;42.646;23.344;2022-08-18T02:27:13;94420.34;;;18.28;100.00
12219;BME280;6172;42.646;23.344;2022-08-18T02:29:41;94447.38;;;18.47;100.00
12219;BME280;6172;42.646;23.344;2022-08-18T02:32:09;94426.44;;;18.32;100.00
12219;BME280;6172;42.646;23.344;2022-08-18T02:34:36;94449.81;;;18.22;100.00
12219;BME280;6172;42.646;23.344;2022-08-18T02:37:03;94447.44;;;18.29;100.00
12219;BME280;6172;42.646;23.344;2022-08-18T02:39:32;94450.56;;;18.22;100.00
12219;BME280;6172;42.646;23.344;2022-08-18T02:42:00;94445.81;;;18.23;100.00
12219;BME280;6172;42.646;23.344;2022-08-18T02:44:26;94443.09;;;18.14;100.00
12219;BME280;6172;42.646;23.344;2022-08-18T02:46:54;94443.09;;;18.14;100.00
12219;BME280;6172;42.646;23.344;2022-08-18T02:49:22;94442.84;;;18.03;100.00
12219;BME280;6172;42.646;23.344;2022-08-18T02:51:50;94421.13;;;17.96;100.00
12219;BME280;6172;42.646;23.344;2022-08-18T02:54:17;94439.63;;;18.04;100.00
12219;BME280;6172;42.646;23.344;2022-08-18T02:56:45;94445.56;;;18.12;100.00
12219;BME280;6172;42.646;23.344;2022-08-18T02:59:14;94456.41;;;18.15;100.00
12219;BME280;6172;42.646;23.344;2022-08-18T03:01:44;94437.34;;;18.03;100.00
12219;BME280;6172;42.646;23.344;2022-08-18T03:04:14;94444.94;;;18.08;100.00
12219;BME280;6172;42.646;23.344;2022-08-18T03:06:43;94451.09;;;18.12;100.00
12219;BME280;6172;42.646;23.344;2022-08-18T03:09:12;94453.22;;;18.08;100.00
12219;BME280;6172;42.646;23.344;2022-08-18T03:11:39;94440.72;;;17.98;100.00
12219;BME280;6172;42.646;23.344;2022-08-18T03:14:06;94441.03;;;18.00;100.00
12219;BME280;6172;42.646;23.344;2022-08-18T03:16:37;94459.34;;;18.12;100.00
12219;BME280;6172;42.646;23.344;2022-08-18T03:19:05;94452.22;;;17.96;100.00
12219;BME280;6172;42.646;23.344;2022-08-18T03:21:33;94442.78;;;17.79;100.00
12219;BME280;6172;42.646;23.344;2022-08-18T03:24:03;94466.94;;;17.93;100.00
12219;BME280;6172;42.646;23.344;2022-08-18T03:26:31;94457.84;;;17.69;100.00
12219;BME280;6172;42.646;23.344;2022-08-18T03:28:59;94472.97;;;17.74;100.00
12219;BME280;6172;42.646;23.344;2022-08-18T03:31:28;94473.16;;;17.70;100.00
12219;BME280;6172;42.646;23.344;2022-08-18T03:33:56;94463.09;;;17.58;100.00
12219;BME280;6172;42.646;23.344;2022-08-18T03:36:26;94474.19;;;17.82;100.00
12219;BME280;6172;42.646;23.344;2022-08-18T03:38:53;94475.16;;;17.70;100.00
12219;BME280;6172;42.646;23.344;2022-08-18T03:41:24;94471.00;;;17.74;100.00
12219;BME280;6172;42.646;23.344;2022-08-18T03:43:52;94454.66;;;17.62;100.00
12219;BME280;6172;42.646;23.344;2022-08-18T03:46:20;94461.53;;;17.66;100.00
12219;BME280;6172;42.646;23.344;2022-08-18T03:48:48;94469.63;;;17.70;100.00
12219;BME280;6172;42.646;23.344;2022-08-18T03:51:22;94463.56;;;17.57;100.00
12219;BME280;6172;42.646;23.344;2022-08-18T03:53:50;94465.53;;;17.56;100.00
12219;BME280;6172;42.646;23.344;2022-08-18T03:56:22;94471.47;;;17.55;100.00
12219;BME280;6172;42.646;23.344;2022-08-18T03:58:52;94454.41;;;17.23;100.00
12219;BME280;6172;42.646;23.344;2022-08-18T04:01:21;94478.56;;;17.47;100.00
12219;BME280;6172;42.646;23.344;2022-08-18T04:03:52;94479.63;;;17.58;100.00
12219;BME280;6172;42.646;23.344;2022-08-18T04:06:22;94473.06;;;17.38;100.00
12219;BME280;6172;42.646;23.344;2022-08-18T04:08:50;94491.88;;;17.39;100.00
12219;BME280;6172;42.646;23.344;2022-08-18T04:11:17;94487.41;;;17.42;100.00
12219;BME280;6172;42.646;23.344;2022-08-18T04:13:46;94493.69;;;17.51;100.00
12219;BME280;6172;42.646;23.344;2022-08-18T04:16:13;94483.00;;;17.44;100.00
12219;BME280;6172;42.646;23.344;2022-08-18T04:18:40;94484.97;;;17.62;100.00
12219;BME280;6172;42.646;23.344;2022-08-18T04:21:09;94494.59;;;17.66;100.00
12219;BME280;6172;42.646;23.344;2022-08-18T04:23:38;94494.78;;;17.63;100.00
12219;BME280;6172;42.646;23.344;2022-08-18T04:26:07;94480.53;;;17.46;100.00
12219;BME280;6172;42.646;23.344;2022-08-18T04:28:36;94501.31;;;17.74;100.00
12219;BME280;6172;42.646;23.344;2022-08-18T04:31:10;94491.78;;;17.84;100.00
12219;BME280;6172;42.646;23.344;2022-08-18T04:33:38;94502.06;;;17.84;100.00
12219;BME280;6172;42.646;23.344;2022-08-18T04:36:08;94501.84;;;17.96;100.00
12219;BME280;6172;42.646;23.344;2022-08-18T04:38:37;94500.75;;;18.03;100.00
12219;BME280;6172;42.646;23.344;2022-08-18T04:41:05;94507.31;;;18.14;100.00
12219;BME280;6172;42.646;23.344;2022-08-18T04:43:32;94503.16;;;18.19;100.00
12219;BME280;6172;42.646;23.344;2022-08-18T04:45:59;94487.19;;;18.23;100.00
12219;BME280;6172;42.646;23.344;2022-08-18T04:48:31;94509.13;;;18.50;100.00
12219;BME280;6172;42.646;23.344;2022-08-18T04:51:03;94491.28;;;18.60;100.00
12219;BME280;6172;42.646;23.344;2022-08-18T04:53:37;94504.38;;;18.74;100.00
12219;BME280;6172;42.646;23.344;2022-08-18T04:56:18;94502.81;;;18.82;100.00
12219;BME280;6172;42.646;23.344;2022-08-18T04:58:50;94512.03;;;19.02;100.00
12219;BME280;6172;42.646;23.344;2022-08-18T05:01:18;94507.81;;;19.07;100.00
12219;BME280;6172;42.646;23.344;2022-08-18T05:03:49;94511.56;;;19.18;100.00
12219;BME280;6172;42.646;23.344;2022-08-18T05:06:17;94511.63;;;19.33;100.00
12219;BME280;6172;42.646;23.344;2022-08-18T05:08:44;94489.75;;;19.20;100.00
12219;BME280;6172;42.646;23.344;2022-08-18T05:11:12;94515.56;;;19.41;100.00
12219;BME280;6172;42.646;23.344;2022-08-18T05:13:40;94489.81;;;19.35;100.00
12219;BME280;6172;42.646;23.344;2022-08-18T05:16:07;94508.13;;;19.62;100.00
12219;BME280;6172;42.646;23.344;2022-08-18T05:18:35;94510.25;;;19.81;100.00
12219;BME280;6172;42.646;23.344;2022-08-18T05:21:05;94513.66;;;19.76;100.00
12219;BME280;6172;42.646;23.344;2022-08-18T05:23:33;94519.78;;;19.80;100.00
12219;BME280;6172;42.646;23.344;2022-08-18T05:26:01;94502.41;;;19.80;100.00
12219;BME280;6172;42.646;23.344;2022-08-18T05:28:29;94515.00;;;20.10;100.00
12219;BME280;6172;42.646;23.344;2022-08-18T05:30:56;94512.97;;;20.59;100.00
12219;BME280;6172;42.646;23.344;2022-08-18T05:33:24;94501.44;;;21.61;100.00
12219;BME280;6172;42.646;23.344;2022-08-18T05:35:59;94505.81;;;23.03;100.00
12219;BME280;6172;42.646;23.344;2022-08-18T05:38:48;94508.66;;;24.28;88.44
12219;BME280;6172;42.646;23.344;2022-08-18T05:41:21;94507.31;;;24.89;83.52
12219;BME280;6172;42.646;23.344;2022-08-18T05:43:53;94501.84;;;26.28;70.62
12219;BME280;6172;42.646;23.344;2022-08-18T05:46:25;94506.19;;;26.82;63.89
12219;BME280;6172;42.646;23.344;2022-08-18T05:48:55;94508.53;;;27.02;63.61
12219;BME280;6172;42.646;23.344;2022-08-18T05:51:26;94493.19;;;27.33;61.51
12219;BME280;6172;42.646;23.344;2022-08-18T05:53:55;94506.03;;;28.34;54.66
12219;BME280;6172;42.646;23.344;2022-08-18T05:56:42;94500.25;;;28.45;53.54
12219;BME280;6172;42.646;23.344;2022-08-18T05:59:21;94504.47;;;28.96;53.25
12219;BME280;6172;42.646;23.344;2022-08-18T06:01:54;94509.47;;;29.03;51.56
12219;BME280;6172;42.646;23.344;2022-08-18T06:04:26;94495.72;;;28.42;51.60
12219;BME280;6172;42.646;23.344;2022-08-18T06:06:55;94503.84;;;29.03;50.00
12219;BME280;6172;42.646;23.344;2022-08-18T06:09:33;94501.59;;;28.25;52.64
12219;BME280;6172;42.646;23.344;2022-08-18T06:12:08;94509.69;;;29.70;48.42
12219;BME280;6172;42.646;23.344;2022-08-18T06:14:38;94511.44;;;28.32;51.49
12219;BME280;6172;42.646;23.344;2022-08-18T06:17:14;94495.88;;;26.42;59.49
12219;BME280;6172;42.646;23.344;2022-08-18T06:19:48;94507.28;;;27.83;54.25
12219;BME280;6172;42.646;23.344;2022-08-18T06:22:24;94500.44;;;29.96;47.19
12219;BME280;6172;42.646;23.344;2022-08-18T06:25:02;94506.09;;;29.83;47.61
12219;BME280;6172;42.646;23.344;2022-08-18T06:27:37;94498.16;;;30.82;43.45
12219;BME280;6172;42.646;23.344;2022-08-18T06:30:11;94495.22;;;30.13;44.49
12219;BME280;6172;42.646;23.344;2022-08-18T06:33:08;94507.53;;;29.50;46.93
12219;BME280;6172;42.646;23.344;2022-08-18T06:35:38;94507.34;;;29.61;46.74
12219;BME280;6172;42.646;23.344;2022-08-18T06:38:23;94490.78;;;30.17;46.38
12219;BME280;6172;42.646;23.344;2022-08-18T06:41:12;94490.78;;;30.17;44.89
12219;BME280;6172;42.646;23.344;2022-08-18T06:43:53;94499.50;;;30.48;44.63
12219;BME280;6172;42.646;23.344;2022-08-18T06:46:28;94502.78;;;29.45;46.29
12219;BME280;6172;42.646;23.344;2022-08-18T06:49:02;94494.88;;;30.71;44.21
12219;BME280;6172;42.646;23.344;2022-08-18T06:51:30;94485.97;;;31.71;42.18
12219;BME280;6172;42.646;23.344;2022-08-18T06:53:59;94491.28;;;30.91;43.58
12219;BME280;6172;42.646;23.344;2022-08-18T06:56:34;94486.13;;;30.41;44.60
12219;BME280;6172;42.646;23.344;2022-08-18T06:59:17;94487.53;;;31.16;42.17
12219;BME280;6172;42.646;23.344;2022-08-18T07:01:47;94477.53;;;32.22;39.73
12219;BME280;6172;42.646;23.344;2022-08-18T07:04:38;94476.09;;;32.89;38.25
12219;BME280;6172;42.646;23.344;2022-08-18T07:07:17;94471.53;;;32.48;39.89
12219;BME280;6172;42.646;23.344;2022-08-18T07:09:46;94450.31;;;33.15;38.13
12219;BME280;6172;42.646;23.344;2022-08-18T07:12:21;94467.03;;;33.20;37.65
12219;BME280;6172;42.646;23.344;2022-08-18T07:14:51;94472.63;;;33.50;37.18
12219;BME280;6172;42.646;23.344;2022-08-18T07:17:21;94465.47;;;33.49;36.55
12219;BME280;6172;42.646;23.344;2022-08-18T07:20:03;94452.41;;;33.76;35.50
12219;BME280;6172;42.646;23.344;2022-08-18T07:22:30;94452.72;;;33.33;35.99
12219;BME280;6172;42.646;23.344;2022-08-18T07:25:00;94455.66;;;33.50;35.96
12219;BME280;6172;42.646;23.344;2022-08-18T07:27:46;94425.16;;;34.60;33.66
12219;BME280;6172;42.646;23.344;2022-08-18T07:30:26;94448.88;;;36.16;31.04
12219;BME280;6172;42.646;23.344;2022-08-18T07:32:58;94447.75;;;35.51;31.61
12219;BME280;6172;42.646;23.344;2022-08-18T07:35:31;94457.72;;;35.18;31.47
12219;BME280;6172;42.646;23.344;2022-08-18T07:38:03;94443.81;;;36.24;30.18
12219;BME280;6172;42.646;23.344;2022-08-18T07:40:36;94453.25;;;35.83;30.93
12219;BME280;6172;42.646;23.344;2022-08-18T07:43:09;94453.75;;;35.72;31.19
12219;BME280;6172;42.646;23.344;2022-08-18T07:45:42;94453.00;;;34.71;32.27
12219;BME280;6172;42.646;23.344;2022-08-18T07:48:11;94457.66;;;34.51;32.62
12219;BME280;6172;42.646;23.344;2022-08-18T07:50:44;94452.97;;;34.96;31.60
12219;BME280;6172;42.646;23.344;2022-08-18T07:53:31;94461.63;;;34.81;31.44
12219;BME280;6172;42.646;23.344;2022-08-18T07:56:04;94434.31;;;34.43;31.72
12219;BME280;6172;42.646;23.344;2022-08-18T07:58:45;94449.63;;;35.31;31.25
12219;BME280;6172;42.646;23.344;2022-08-18T08:01:17;94438.91;;;35.47;30.28
12219;BME280;6172;42.646;23.344;2022-08-18T08:03:53;94433.63;;;35.26;30.38
12219;BME280;6172;42.646;23.344;2022-08-18T08:06:31;94456.59;;;35.55;30.58
12219;BME280;6172;42.646;23.344;2022-08-18T08:09:04;94453.31;;;35.00;30.63
12219;BME280;6172;42.646;23.344;2022-08-18T08:11:42;94452.41;;;35.56;30.62
12219;BME280;6172;42.646;23.344;2022-08-18T08:14:38;94438.06;;;35.20;31.05
12219;BME280;6172;42.646;23.344;2022-08-18T08:17:12;94447.50;;;35.56;30.36
12219;BME280;6172;42.646;23.344;2022-08-18T08:20:08;94454.91;;;36.03;29.35
12219;BME280;6172;42.646;23.344;2022-08-18T08:22:39;94451.25;;;35.59;29.86
12219;BME280;6172;42.646;23.344;2022-08-18T08:25:18;94455.22;;;34.97;31.26
12219;BME280;6172;42.646;23.344;2022-08-18T08:27:59;94441.22;;;35.41;30.44
12219;BME280;6172;42.646;23.344;2022-08-18T08:30:35;94451.88;;;35.16;30.50
12219;BME280;6172;42.646;23.344;2022-08-18T08:33:15;94454.56;;;34.65;29.81
12219;BME280;6172;42.646;23.344;2022-08-18T08:35:51;94453.97;;;34.91;29.71
12219;BME280;6172;42.646;23.344;2022-08-18T08:38:24;94457.91;;;35.37;28.67
12219;BME280;6172;42.646;23.344;2022-08-18T08:40:58;94434.28;;;34.76;28.74
12219;BME280;6172;42.646;23.344;2022-08-18T08:43:31;94454.38;;;33.98;30.55
12219;BME280;6172;42.646;23.344;2022-08-18T08:46:06;94456.28;;;33.96;30.88
12219;BME280;6172;42.646;23.344;2022-08-18T08:48:39;94446.50;;;34.29;30.88
12219;BME280;6172;42.646;23.344;2022-08-18T08:51:18;94454.69;;;33.70;31.79
12219;BME280;6172;42.646;23.344;2022-08-18T08:53:57;94456.13;;;33.24;32.02
12219;BME280;6172;42.646;23.344;2022-08-18T08:56:29;94457.72;;;33.65;32.14
12219;BME280;6172;42.646;23.344;2022-08-18T08:58:59;94433.16;;;33.82;30.86
12219;BME280;6172;42.646;23.344;2022-08-18T09:01:35;94449.44;;;33.59;31.77
12219;BME280;6172;42.646;23.344;2022-08-18T09:04:17;94446.34;;;33.25;31.67
12219;BME280;6172;42.646;23.344;2022-08-18T09:06:54;94438.34;;;33.46;31.32
12219;BME280;6172;42.646;23.344;2022-08-18T09:09:44;94434.19;;;33.47;30.95
12219;BME280;6172;42.646;23.344;2022-08-18T09:12:25;94445.31;;;33.53;31.38
12219;BME280;6172;42.646;23.344;2022-08-18T09:15:17;94410.56;;;33.20;31.18
12219;BME280;6172;42.646;23.344;2022-08-18T09:18:11;94436.56;;;33.73;30.61
12219;BME280;6172;42.646;23.344;2022-08-18T09:20:50;94430.00;;;33.01;30.35
12219;BME280;6172;42.646;23.344;2022-08-18T09:23:21;94429.22;;;32.93;30.64
12219;BME280;6172;42.646;23.344;2022-08-18T09:25:51;94428.03;;;33.34;30.20
12219;BME280;6172;42.646;23.344;2022-08-18T09:28:20;94429.41;;;33.80;30.22
12219;BME280;6172;42.646;23.344;2022-08-18T09:31:13;94423.63;;;33.63;29.98
12219;BME280;6172;42.646;23.344;2022-08-18T09:34:07;94414.97;;;33.53;30.30
12219;BME280;6172;42.646;23.344;2022-08-18T09:36:51;94416.03;;;33.11;30.54
12219;BME280;6172;42.646;23.344;2022-08-18T09:39:26;94413.56;;;33.22;29.96
12219;BME280;6172;42.646;23.344;2022-08-18T09:42:14;94404.53;;;33.78;29.65
12219;BME280;6172;42.646;23.344;2022-08-18T09:45:04;94404.31;;;33.84;29.14
12219;BME280;6172;42.646;23.344;2022-08-18T09:47:57;94412.88;;;33.61;29.51
12219;BME280;6172;42.646;23.344;2022-08-18T09:50:50;94398.91;;;33.16;30.02
12219;BME280;6172;42.646;23.344;2022-08-18T09:53:34;94416.28;;;33.52;29.87
12219;BME280;6172;42.646;23.344;2022-08-18T09:56:03;94398.53;;;33.74;28.90
12219;BME280;6172;42.646;23.344;2022-08-18T09:58:52;94394.28;;;33.43;28.99
12219;BME280;6172;42.646;23.344;2022-08-18T10:04:33;94379.44;;;33.35;28.77
12219;BME280;6172;42.646;23.344;2022-08-18T10:07:19;94372.06;;;32.70;29.57
12219;BME280;6172;42.646;23.344;2022-08-18T10:10:02;94364.19;;;33.38;29.47
12219;BME280;6172;42.646;23.344;2022-08-18T10:13:05;94378.63;;;32.80;29.91
12219;BME280;6172;42.646;23.344;2022-08-18T10:15:44;94380.88;;;32.82;30.38
12219;BME280;6172;42.646;23.344;2022-08-18T10:21:11;94392.00;;;32.80;30.82
12219;BME280;6172;42.646;23.344;2022-08-18T10:23:52;94374.50;;;32.43;30.44
12219;BME280;6172;42.646;23.344;2022-08-18T10:29:53;94373.25;;;33.76;29.59
12219;BME280;6172;42.646;23.344;2022-08-18T10:38:23;94365.47;;;34.41;28.85
12219;BME280;6172;42.646;23.344;2022-08-18T10:41:00;94361.34;;;34.84;28.35
12219;BME280;6172;42.646;23.344;2022-08-18T10:43:36;94349.19;;;34.74;26.96
12219;BME280;6172;42.646;23.344;2022-08-18T10:46:14;94356.81;;;34.64;27.43
12219;BME280;6172;42.646;23.344;2022-08-18T10:48:42;94349.25;;;34.41;27.53
12219;BME280;6172;42.646;23.344;2022-08-18T10:51:17;94363.06;;;34.05;27.96
12219;BME280;6172;42.646;23.344;2022-08-18T10:53:49;94355.16;;;33.32;28.62
12219;BME280;6172;42.646;23.344;2022-08-18T10:56:28;94356.72;;;33.97;28.13
12219;BME280;6172;42.646;23.344;2022-08-18T10:59:15;94343.22;;;33.88;28.15
12219;BME280;6172;42.646;23.344;2022-08-18T11:02:19;94332.88;;;33.44;29.06
12219;BME280;6172;42.646;23.344;2022-08-18T11:04:52;94327.28;;;34.00;27.98
12219;BME280;6172;42.646;23.344;2022-08-18T11:07:24;94321.47;;;33.34;27.97
12219;BME280;6172;42.646;23.344;2022-08-18T11:09:54;94332.94;;;33.76;28.25
12219;BME280;6172;42.646;23.344;2022-08-18T11:12:44;94305.69;;;33.56;28.43
12219;BME280;6172;42.646;23.344;2022-08-18T11:15:18;94329.06;;;33.49;28.19
12219;BME280;6172;42.646;23.344;2022-08-18T11:17:55;94326.75;;;33.70;27.65
12219;BME280;6172;42.646;23.344;2022-08-18T11:20:29;94328.34;;;34.12;27.03
12219;BME280;6172;42.646;23.344;2022-08-18T11:22:59;94318.13;;;34.17;27.23
12219;BME280;6172;42.646;23.344;2022-08-18T11:25:28;94331.59;;;34.09;27.38
12219;BME280;6172;42.646;23.344;2022-08-18T11:27:58;94319.84;;;33.88;28.39
12219;BME280;6172;42.646;23.344;2022-08-18T11:30:28;94304.88;;;33.70;27.84
12219;BME280;6172;42.646;23.344;2022-08-18T11:32:56;94324.91;;;34.21;27.52
12219;BME280;6172;42.646;23.344;2022-08-18T11:35:26;94329.06;;;34.20;25.87
12219;BME280;6172;42.646;23.344;2022-08-18T11:37:57;94327.28;;;34.49;26.15
12219;BME280;6172;42.646;23.344;2022-08-18T11:40:35;94308.44;;;34.03;26.53
12219;BME280;6172;42.646;23.344;2022-08-18T11:43:09;94317.91;;;33.90;26.83
12219;BME280;6172;42.646;23.344;2022-08-18T11:45:49;94301.34;;;33.23;27.19
12219;BME280;6172;42.646;23.344;2022-08-18T11:48:20;94318.25;;;33.70;27.22
12219;BME280;6172;42.646;23.344;2022-08-18T11:50:58;94316.44;;;33.89;26.97
12219;BME280;6172;42.646;23.344;2022-08-18T11:53:36;94304.38;;;33.57;27.42
12219;BME280;6172;42.646;23.344;2022-08-18T11:56:10;94313.53;;;33.72;27.63
12219;BME280;6172;42.646;23.344;2022-08-18T11:58:43;94301.25;;;34.02;26.57
12219;BME280;6172;42.646;23.344;2022-08-18T12:01:27;94293.34;;;33.76;26.88
12219;BME280;6172;42.646;23.344;2022-08-18T12:04:06;94285.78;;;33.78;26.72
12219;BME280;6172;42.646;23.344;2022-08-18T12:06:39;94298.09;;;34.22;26.36
12219;BME280;6172;42.646;23.344;2022-08-18T12:09:14;94293.47;;;34.34;25.20
12219;BME280;6172;42.646;23.344;2022-08-18T12:11:49;94266.66;;;34.18;25.59
12219;BME280;6172;42.646;23.344;2022-08-18T12:14:21;94280.97;;;34.62;25.40
12219;BME280;6172;42.646;23.344;2022-08-18T12:16:49;94280.91;;;35.04;26.62
12219;BME280;6172;42.646;23.344;2022-08-18T12:19:16;94285.81;;;34.69;25.51
12219;BME280;6172;42.646;23.344;2022-08-18T12:21:49;94288.78;;;34.71;25.84
12219;BME280;6172;42.646;23.344;2022-08-18T12:24:19;94284.25;;;34.51;25.28
12219;BME280;6172;42.646;23.344;2022-08-18T12:26:47;94264.44;;;34.34;25.79
12219;BME280;6172;42.646;23.344;2022-08-18T12:29:16;94271.25;;;34.06;26.07
12219;BME280;6172;42.646;23.344;2022-08-18T12:31:45;94278.94;;;34.13;26.19
12219;BME280;6172;42.646;23.344;2022-08-18T12:34:15;94283.97;;;33.34;27.40
12219;BME280;6172;42.646;23.344;2022-08-18T12:36:42;94273.94;;;32.93;27.32
12219;BME280;6172;42.646;23.344;2022-08-18T12:39:09;94257.47;;;32.75;27.27
12219;BME280;6172;42.646;23.344;2022-08-18T12:41:36;94266.25;;;32.86;27.81
12219;BME280;6172;42.646;23.344;2022-08-18T12:44:04;94261.22;;;32.70;27.99
12219;BME280;6172;42.646;23.344;2022-08-18T12:46:31;94267.63;;;32.70;27.82
12219;BME280;6172;42.646;23.344;2022-08-18T12:49:00;94279.56;;;33.08;27.39
12219;BME280;6172;42.646;23.344;2022-08-18T12:51:28;94283.63;;;32.68;28.23
12219;BME280;6172;42.646;23.344;2022-08-18T12:53:55;94292.44;;;32.64;28.40
12219;BME280;6172;42.646;23.344;2022-08-18T12:56:24;94294.03;;;32.27;28.37
12219;BME280;6172;42.646;23.344;2022-08-18T12:58:52;94279.56;;;32.16;28.41
12219;BME280;6172;42.646;23.344;2022-08-18T13:01:20;94279.72;;;32.33;28.42
12219;BME280;6172;42.646;23.344;2022-08-18T13:03:49;94268.81;;;32.14;28.55
12219;BME280;6172;42.646;23.344;2022-08-18T13:06:19;94265.44;;;32.31;29.27
12219;BME280;6172;42.646;23.344;2022-08-18T13:08:47;94282.16;;;32.14;28.97
12219;BME280;6172;42.646;23.344;2022-08-18T13:11:14;94257.56;;;32.22;29.51
12219;BME280;6172;42.646;23.344;2022-08-18T13:13:42;94260.19;;;32.35;29.03
12219;BME280;6172;42.646;23.344;2022-08-18T13:16:10;94260.19;;;32.20;29.42
12219;BME280;6172;42.646;23.344;2022-08-18T13:18:38;94253.34;;;32.61;28.56
12219;BME280;6172;42.646;23.344;2022-08-18T13:21:08;94256.78;;;32.99;27.97
12219;BME280;6172;42.646;23.344;2022-08-18T13:23:37;94251.88;;;32.52;28.44
12219;BME280;6172;42.646;23.344;2022-08-18T13:26:07;94245.47;;;32.44;29.02
12219;BME280;6172;42.646;23.344;2022-08-18T13:28:35;94261.28;;;32.39;29.08
12219;BME280;6172;42.646;23.344;2022-08-18T13:31:02;94257.16;;;32.33;28.61
12219;BME280;6172;42.646;23.344;2022-08-18T13:33:29;94227.63;;;32.34;28.50
12219;BME280;6172;42.646;23.344;2022-08-18T13:35:58;94233.09;;;32.32;28.29
12219;BME280;6172;42.646;23.344;2022-08-18T13:38:25;94249.75;;;32.75;28.57
12219;BME280;6172;42.646;23.344;2022-08-18T13:40:56;94251.38;;;32.93;28.16